Los Angeles, California
Traffic Map
Current Weather Conditions
Los Angeles, California
Scattered Clouds
Scattered Clouds
22°
Feels Like: 22°
Wind Chill: 22° Ceiling: Unl
Heat Index: 22° Visibility: 10mi
Dew Point: 12° Wind: 3mph
Humidity: 53% Direction: ° ()
Pressure: 29.91in Gusts: 0mph
Raw Report DataKCQT 012047Z AUTO VRB03KT 10SM SCT034 22/12 A2991 RMK AO2 SLP127 T02220122 56003
Traffic Incident Summary
Active as of:
Severity:
Category:
InformationThere was an issue retrieving the traffic information for this location. Please try a different location or try again shortly.
Advertisements
Track Severe Weather on mobile